sensor_id;sensor_type;location;lat;lon;timestamp;pressure;altitude;pressure_sealevel;temperature;humidity
45939;BME280;31650;48.818;9.116;2022-07-26T00:06:15;97755.88;;;21.48;100.00
45939;BME280;31650;48.818;9.116;2022-07-26T00:21:16;97765.66;;;21.36;100.00
45939;BME280;31650;48.818;9.116;2022-07-26T00:36:16;97764.84;;;21.35;100.00
45939;BME280;31650;48.818;9.116;2022-07-26T00:51:16;97775.47;;;21.71;100.00
45939;BME280;31650;48.818;9.116;2022-07-26T01:06:16;97837.19;;;21.18;100.00
45939;BME280;31650;48.818;9.116;2022-07-26T01:21:17;97891.06;;;18.50;100.00
45939;BME280;31650;48.818;9.116;2022-07-26T01:36:17;97890.97;;;18.09;100.00
45939;BME280;31650;48.818;9.116;2022-07-26T01:51:18;97917.38;;;18.16;100.00
45939;BME280;31650;48.818;9.116;2022-07-26T02:06:18;97886.63;;;18.44;100.00
45939;BME280;31650;48.818;9.116;2022-07-26T02:21:19;97885.28;;;18.52;100.00
45939;BME280;31650;48.818;9.116;2022-07-26T02:36:19;97865.44;;;18.65;100.00
45939;BME280;31650;48.818;9.116;2022-07-26T02:51:19;97833.53;;;18.69;100.00
45939;BME280;31650;48.818;9.116;2022-07-26T03:06:19;97834.34;;;18.49;100.00
45939;BME280;31650;48.818;9.116;2022-07-26T03:21:20;97840.94;;;18.28;100.00
45939;BME280;31650;48.818;9.116;2022-07-26T03:36:20;97842.84;;;18.12;100.00
45939;BME280;31650;48.818;9.116;2022-07-26T03:51:20;97839.28;;;18.12;100.00
45939;BME280;31650;48.818;9.116;2022-07-26T04:06:20;97855.88;;;17.69;100.00
45939;BME280;31650;48.818;9.116;2022-07-26T04:21:21;97876.16;;;17.53;100.00
45939;BME280;31650;48.818;9.116;2022-07-26T04:36:21;97869.66;;;17.74;100.00
45939;BME280;31650;48.818;9.116;2022-07-26T04:51:21;97868.16;;;18.09;100.00
45939;BME280;31650;48.818;9.116;2022-07-26T05:06:21;97867.66;;;18.73;100.00
45939;BME280;31650;48.818;9.116;2022-07-26T05:21:22;97860.38;;;19.54;100.00
45939;BME280;31650;48.818;9.116;2022-07-26T05:36:22;97874.78;;;19.26;100.00
45939;BME280;31650;48.818;9.116;2022-07-26T05:51:22;97857.53;;;20.35;100.00
45939;BME280;31650;48.818;9.116;2022-07-26T06:06:22;97854.84;;;21.95;100.00
45939;BME280;31650;48.818;9.116;2022-07-26T06:21:22;97846.34;;;22.67;100.00
45939;BME280;31650;48.818;9.116;2022-07-26T06:36:23;97848.16;;;22.90;100.00
45939;BME280;31650;48.818;9.116;2022-07-26T06:51:23;97854.59;;;23.18;100.00
45939;BME280;31650;48.818;9.116;2022-07-26T07:06:23;97848.69;;;24.08;100.00
45939;BME280;31650;48.818;9.116;2022-07-26T07:21:23;97845.03;;;24.58;93.06
45939;BME280;31650;48.818;9.116;2022-07-26T07:36:24;97842.94;;;25.08;79.76
45939;BME280;31650;48.818;9.116;2022-07-26T07:51:27;97843.53;;;25.19;73.97
45939;BME280;31650;48.818;9.116;2022-07-26T08:06:27;97837.78;;;24.93;78.22
45939;BME280;31650;48.818;9.116;2022-07-26T08:21:28;97833.22;;;25.20;78.72
45939;BME280;31650;48.818;9.116;2022-07-26T08:36:28;97841.41;;;24.71;76.81
45939;BME280;31650;48.818;9.116;2022-07-26T08:51:28;97847.16;;;24.97;76.41
45939;BME280;31650;48.818;9.116;2022-07-26T09:06:29;97851.38;;;25.17;74.48
45939;BME280;31650;48.818;9.116;2022-07-26T09:21:30;97869.38;;;24.97;69.58
45939;BME280;31650;48.818;9.116;2022-07-26T09:36:31;97879.25;;;24.44;74.52
45939;BME280;31650;48.818;9.116;2022-07-26T09:51:39;97882.97;;;24.54;77.26
45939;BME280;31650;48.818;9.116;2022-07-26T10:06:40;97889.31;;;26.24;69.41
45939;BME280;31650;48.818;9.116;2022-07-26T10:21:40;97876.44;;;25.97;72.88
45939;BME280;31650;48.818;9.116;2022-07-26T10:36:42;97890.13;;;26.33;63.06
45939;BME280;31650;48.818;9.116;2022-07-26T10:51:42;97897.41;;;26.69;55.85
45939;BME280;31650;48.818;9.116;2022-07-26T11:06:42;97907.72;;;27.04;54.85
45939;BME280;31650;48.818;9.116;2022-07-26T11:21:45;97902.31;;;25.98;57.01
45939;BME280;31650;48.818;9.116;2022-07-26T11:36:45;97889.97;;;27.08;48.73
45939;BME280;31650;48.818;9.116;2022-07-26T11:51:56;97894.63;;;26.87;47.76
45939;BME280;31650;48.818;9.116;2022-07-26T12:06:57;97885.41;;;26.60;46.23
45939;BME280;31650;48.818;9.116;2022-07-26T12:22:06;97884.75;;;26.98;44.38
45939;BME280;31650;48.818;9.116;2022-07-26T12:37:08;97850.66;;;28.16;37.95
45939;BME280;31650;48.818;9.116;2022-07-26T12:52:09;97862.56;;;27.10;42.11
45939;BME280;31650;48.818;9.116;2022-07-26T13:07:09;97844.34;;;29.24;36.95
45939;BME280;31650;48.818;9.116;2022-07-26T13:22:09;97836.88;;;27.52;38.05
45939;BME280;31650;48.818;9.116;2022-07-26T13:37:10;97827.09;;;28.05;38.81
45939;BME280;31650;48.818;9.116;2022-07-26T13:52:10;97816.78;;;27.97;38.50
45939;BME280;31650;48.818;9.116;2022-07-26T14:07:10;97817.84;;;26.81;35.93
45939;BME280;31650;48.818;9.116;2022-07-26T14:22:10;97798.06;;;29.39;35.64
45939;BME280;31650;48.818;9.116;2022-07-26T14:37:12;97812.56;;;30.03;32.68
45939;BME280;31650;48.818;9.116;2022-07-26T14:52:12;97811.56;;;28.37;35.03
45939;BME280;31650;48.818;9.116;2022-07-26T15:07:12;97811.69;;;28.20;33.72
45939;BME280;31650;48.818;9.116;2022-07-26T15:22:13;97786.03;;;30.81;30.31
45939;BME280;31650;48.818;9.116;2022-07-26T15:37:13;97780.78;;;31.24;31.69
45939;BME280;31650;48.818;9.116;2022-07-26T15:52:14;97793.16;;;28.57;34.14
45939;BME280;31650;48.818;9.116;2022-07-26T16:07:14;97776.34;;;29.12;36.77
45939;BME280;31650;48.818;9.116;2022-07-26T16:22:15;97766.88;;;26.63;42.08
45939;BME280;31650;48.818;9.116;2022-07-26T16:37:15;97773.72;;;26.48;43.03
45939;BME280;31650;48.818;9.116;2022-07-26T16:52:16;97779.72;;;25.80;47.64
45939;BME280;31650;48.818;9.116;2022-07-26T17:07:16;97748.03;;;29.25;37.58
45939;BME280;31650;48.818;9.116;2022-07-26T17:22:17;97761.47;;;26.31;43.96
45939;BME280;31650;48.818;9.116;2022-07-26T17:37:23;97750.47;;;27.17;44.36
45939;BME280;31650;48.818;9.116;2022-07-26T17:52:23;97759.66;;;27.26;41.83
45939;BME280;31650;48.818;9.116;2022-07-26T18:07:24;97758.19;;;26.29;46.46
45939;BME280;31650;48.818;9.116;2022-07-26T18:22:24;97749.78;;;24.21;53.32
45939;BME280;31650;48.818;9.116;2022-07-26T18:37:26;97755.81;;;23.36;65.04
45939;BME280;31650;48.818;9.116;2022-07-26T18:52:26;97768.31;;;22.92;72.33
45939;BME280;31650;48.818;9.116;2022-07-26T19:07:26;97776.69;;;22.73;77.49
45939;BME280;31650;48.818;9.116;2022-07-26T19:22:27;97797.66;;;22.28;88.96
45939;BME280;31650;48.818;9.116;2022-07-26T19:37:29;97826.88;;;21.77;98.04
45939;BME280;31650;48.818;9.116;2022-07-26T19:52:29;97836.97;;;21.15;100.00
45939;BME280;31650;48.818;9.116;2022-07-26T20:07:30;97854.94;;;20.43;100.00
45939;BME280;31650;48.818;9.116;2022-07-26T20:22:30;97851.75;;;19.76;100.00
45939;BME280;31650;48.818;9.116;2022-07-26T20:37:30;97861.53;;;19.33;100.00
45939;BME280;31650;48.818;9.116;2022-07-26T20:52:30;97857.47;;;19.05;100.00
45939;BME280;31650;48.818;9.116;2022-07-26T21:07:30;97855.56;;;18.69;100.00
45939;BME280;31650;48.818;9.116;2022-07-26T21:22:31;97856.38;;;18.65;100.00
45939;BME280;31650;48.818;9.116;2022-07-26T21:37:31;97856.69;;;18.84;100.00
45939;BME280;31650;48.818;9.116;2022-07-26T21:52:31;97857.78;;;18.78;100.00
45939;BME280;31650;48.818;9.116;2022-07-26T22:07:32;97856.66;;;18.43;100.00
45939;BME280;31650;48.818;9.116;2022-07-26T22:22:33;97860.16;;;18.02;100.00
45939;BME280;31650;48.818;9.116;2022-07-26T22:37:33;97865.31;;;17.83;100.00
45939;BME280;31650;48.818;9.116;2022-07-26T22:52:33;97860.97;;;17.98;100.00
45939;BME280;31650;48.818;9.116;2022-07-26T23:07:34;97869.94;;;17.78;100.00
45939;BME280;31650;48.818;9.116;2022-07-26T23:22:34;97870.16;;;17.66;100.00
45939;BME280;31650;48.818;9.116;2022-07-26T23:37:34;97864.69;;;17.66;100.00
45939;BME280;31650;48.818;9.116;2022-07-26T23:52:35;97866.53;;;18.28;100.00
